Time;durP1;ratioP1;P1;durP2;ratioP2;P2;SDS_P1;SDS_P2;PMS_P1;PMS_P2;Temp;Humidity;BMP_temperature;BMP_pressure;BME280_temperature;BME280_humidity;BME280_pressure;Samples;Min_cycle;Max_cycle;Signal;HPM_P1;HPM_P2
2023/01/15 00:02:26;;;;;;;13.48;8.32;;;;;;;4.25;100.00;98599.19;4988648;28;20048;-70
2023/01/15 00:05:12;;;;;;;11.73;7.65;;;;;;;4.22;100.00;98580.34;5012274;28;20049;-71
2023/01/15 00:07:57;;;;;;;12.57;8.52;;;;;;;4.27;100.00;98588.75;5009892;28;20046;-71
2023/01/15 00:10:42;;;;;;;11.27;7.50;;;;;;;4.18;100.00;98585.66;5014370;28;20100;-71
2023/01/15 00:13:28;;;;;;;11.73;7.72;;;;;;;4.21;100.00;98584.69;4998518;28;20060;-71
2023/01/15 00:16:19;;;;;;;11.68;7.35;;;;;;;4.18;100.00;98577.03;5015189;28;20393;-71
2023/01/15 00:19:07;;;;;;;10.95;7.68;;;;;;;4.24;100.00;98575.94;5013816;28;20556;-71
2023/01/15 00:21:52;;;;;;;12.02;7.75;;;;;;;4.29;100.00;98568.78;4986785;28;20144;-70
2023/01/15 00:27:42;;;;;;;11.60;7.85;;;;;;;4.28;100.00;98572.28;5014968;28;20042;-69
2023/01/15 00:30:27;;;;;;;9.98;6.88;;;;;;;4.34;100.00;98561.63;4998500;28;20046;-70
2023/01/15 00:33:13;;;;;;;10.00;7.13;;;;;;;4.27;100.00;98563.69;5000066;28;20045;-71
2023/01/15 00:35:58;;;;;;;12.18;8.13;;;;;;;4.26;100.00;98549.00;4999297;28;20037;-71
2023/01/15 00:38:42;;;;;;;13.05;8.00;;;;;;;4.12;100.00;98560.03;4997283;28;20058;-70
2023/01/15 00:41:27;;;;;;;11.65;7.88;;;;;;;4.32;100.00;98556.50;4997829;28;20113;-71
2023/01/15 00:44:12;;;;;;;11.57;7.82;;;;;;;4.20;100.00;98544.09;4971053;28;20042;-70
2023/01/15 00:46:57;;;;;;;12.43;7.45;;;;;;;4.18;100.00;98549.38;5000457;28;20112;-70
2023/01/15 00:49:43;;;;;;;10.95;7.90;;;;;;;4.13;100.00;98538.34;4970774;28;20118;-70
2023/01/15 00:52:28;;;;;;;10.95;6.93;;;;;;;4.19;100.00;98537.25;4986725;28;20038;-70
2023/01/15 00:55:14;;;;;;;10.82;6.88;;;;;;;4.25;100.00;98524.00;5013147;28;20470;-70
2023/01/15 00:58:01;;;;;;;10.15;7.00;;;;;;;4.29;100.00;98522.91;4980366;28;20034;-71
2023/01/15 01:00:47;;;;;;;10.00;7.50;;;;;;;4.33;100.00;98518.44;4978843;28;20038;-71
2023/01/15 01:03:32;;;;;;;10.93;7.32;;;;;;;4.23;100.00;98497.28;5000040;28;20080;-71
2023/01/15 01:06:16;;;;;;;9.50;7.25;;;;;;;4.28;100.00;98484.94;4997544;28;20488;-71
2023/01/15 01:09:01;;;;;;;10.45;7.25;;;;;;;4.32;100.00;98494.25;5011205;28;20474;-69
2023/01/15 01:11:49;;;;;;;8.35;6.03;;;;;;;4.38;100.00;98502.66;4997149;28;20042;-71
2023/01/15 01:14:33;;;;;;;10.95;7.30;;;;;;;4.39;100.00;98512.97;4998209;28;20061;-70
2023/01/15 01:17:18;;;;;;;9.68;6.57;;;;;;;4.31;100.00;98510.72;4997212;28;20494;-72
2023/01/15 01:20:06;;;;;;;12.10;7.15;;;;;;;4.24;100.00;98506.75;5012874;28;20037;-70
2023/01/15 01:22:51;;;;;;;10.32;7.15;;;;;;;4.18;100.00;98496.66;4999830;28;20045;-71
2023/01/15 01:25:36;;;;;;;10.93;6.72;;;;;;;4.27;100.00;98490.19;4953914;29;20441;-71
2023/01/15 01:28:20;;;;;;;11.65;7.07;;;;;;;4.21;100.00;98490.50;4955244;28;20050;-70
2023/01/15 01:31:06;;;;;;;10.13;5.97;;;;;;;4.34;100.00;98490.75;4973606;28;20058;-71
2023/01/15 01:33:53;;;;;;;9.73;5.97;;;;;;;4.35;100.00;98487.25;4954493;29;20039;-71
2023/01/15 01:36:40;;;;;;;9.45;6.22;;;;;;;4.37;100.00;98493.22;4951344;28;20145;-71
2023/01/15 01:39:25;;;;;;;9.48;6.70;;;;;;;4.37;100.00;98491.47;4955651;28;20043;-70
2023/01/15 01:42:14;;;;;;;10.38;6.78;;;;;;;4.28;100.00;98497.91;4951298;29;20043;-69
2023/01/15 01:45:10;;;;;;;10.73;6.88;;;;;;;4.26;100.00;98499.72;4960705;28;20093;-72
2023/01/15 01:48:01;;;;;;;9.95;6.45;;;;;;;4.26;100.00;98496.31;4956014;28;20387;-70
2023/01/15 01:50:47;;;;;;;10.95;6.97;;;;;;;4.18;100.00;98483.69;4972806;28;20042;-71
2023/01/15 01:53:32;;;;;;;11.70;7.35;;;;;;;4.27;100.00;98490.19;4972880;28;20043;-71
2023/01/15 01:56:18;;;;;;;10.57;6.55;;;;;;;4.08;100.00;98467.72;4940013;29;20066;-72
2023/01/15 01:59:07;;;;;;;11.98;7.70;;;;;;;4.02;100.00;98457.63;4939804;29;20043;-71
2023/01/15 02:01:52;;;;;;;11.63;7.13;;;;;;;4.17;100.00;98464.72;4958272;28;20038;-70
2023/01/15 02:04:37;;;;;;;10.43;7.00;;;;;;;4.05;100.00;98455.75;4999439;28;20046;-70
2023/01/15 02:07:22;;;;;;;10.38;6.88;;;;;;;3.98;100.00;98456.97;5012377;28;20049;-70
2023/01/15 02:10:14;;;;;;;10.52;6.80;;;;;;;3.99;100.00;98437.03;4996918;28;20121;-70
2023/01/15 02:12:58;;;;;;;9.35;6.53;;;;;;;3.97;100.00;98433.66;4995721;28;20343;-70
2023/01/15 02:15:54;;;;;;;10.15;6.80;;;;;;;4.03;100.00;98418.66;4997040;28;20038;-70
2023/01/15 02:18:41;;;;;;;12.43;6.30;;;;;;;3.99;100.00;98426.66;4993725;28;20553;-70
2023/01/15 02:21:50;;;;;;;11.68;6.68;;;;;;;4.00;100.00;98418.00;4995045;28;20092;-71
2023/01/15 02:24:50;;;;;;;10.23;7.07;;;;;;;3.97;100.00;98418.13;4985209;28;20121;-70
2023/01/15 02:27:38;;;;;;;8.18;5.72;;;;;;;3.99;100.00;98417.16;4985192;28;20048;-71
2023/01/15 02:30:56;;;;;;;13.55;6.88;;;;;;;4.00;100.00;98408.44;4972643;28;20389;-69
2023/01/15 02:33:50;;;;;;;10.23;6.13;;;;;;;3.96;100.00;98412.09;5015643;28;20040;-71
2023/01/15 02:36:40;;;;;;;10.32;6.32;;;;;;;3.96;100.00;98409.53;4999854;28;20049;-69
2023/01/15 02:39:32;;;;;;;11.68;5.63;;;;;;;3.96;100.00;98401.75;4972177;28;20401;-70
2023/01/15 02:42:19;;;;;;;8.55;5.40;;;;;;;3.92;100.00;98407.97;4972724;28;20061;-70
2023/01/15 02:45:23;;;;;;;;;;;;;;;;;;;;;
2023/01/15 02:48:21;;;;;;;8.25;5.07;;;;;;;4.17;100.00;98402.47;4990257;28;20069;-71
2023/01/15 02:51:13;;;;;;;9.50;5.53;;;;;;;4.03;100.00;98391.94;4986391;28;20037;-71
2023/01/15 02:54:02;;;;;;;8.15;5.85;;;;;;;3.86;100.00;98398.75;4998400;28;20473;-70
2023/01/15 02:56:52;;;;;;;7.30;5.07;;;;;;;3.92;100.00;98390.66;5000025;28;20413;-71
2023/01/15 02:59:41;;;;;;;6.68;4.75;;;;;;;3.98;100.00;98374.00;5015505;28;20052;-70
2023/01/15 03:02:34;;;;;;;7.35;5.15;;;;;;;3.94;100.00;98377.63;4999224;28;20397;-70
2023/01/15 03:05:27;;;;;;;9.60;5.30;;;;;;;3.86;100.00;98372.81;4999955;28;20065;-71
2023/01/15 03:08:13;;;;;;;10.55;4.63;;;;;;;3.90;100.00;98376.94;4986949;28;20069;-70
2023/01/15 03:11:07;;;;;;;8.52;4.82;;;;;;;3.80;100.00;98389.47;5002900;28;20065;-69
2023/01/15 03:14:09;;;;;;;7.07;4.45;;;;;;;3.86;100.00;98377.16;4998957;28;20083;-69
2023/01/15 03:17:01;;;;;;;7.63;4.60;;;;;;;3.80;100.00;98386.88;5003166;28;20485;-69
2023/01/15 03:19:55;;;;;;;7.93;4.18;;;;;;;3.81;100.00;98365.25;5015825;28;20037;-71
2023/01/15 03:22:45;;;;;;;7.63;4.15;;;;;;;3.86;100.00;98369.38;4987141;28;20034;-70
2023/01/15 03:25:34;;;;;;;8.20;4.22;;;;;;;3.82;100.00;98364.34;5015260;28;20125;-70
2023/01/15 03:28:25;;;;;;;6.53;4.10;;;;;;;3.85;100.00;98362.53;4986024;28;20037;-70
2023/01/15 03:31:10;;;;;;;5.32;3.95;;;;;;;3.91;99.81;98372.59;4983080;28;20042;-70
2023/01/15 03:33:56;;;;;;;7.85;3.58;;;;;;;3.93;99.08;98368.19;4992105;28;20057;-69
2023/01/15 03:36:42;;;;;;;4.85;3.63;;;;;;;3.85;99.64;98353.00;4978200;28;20034;-70
2023/01/15 03:39:26;;;;;;;6.65;3.58;;;;;;;3.96;98.10;98352.50;4975328;28;20085;-70
2023/01/15 03:42:45;;;;;;;5.20;3.40;;;;;;;3.92;98.20;98359.56;4991509;28;20038;-69
2023/01/15 03:45:36;;;;;;;6.40;3.47;;;;;;;3.92;97.52;98356.97;4965080;28;20081;-69
2023/01/15 03:48:33;;;;;;;5.55;3.63;;;;;;;3.93;97.72;98339.69;4964328;28;20046;-69
2023/01/15 03:51:35;;;;;;;7.38;3.38;;;;;;;4.02;96.83;98344.41;4977639;28;20169;-70
2023/01/15 03:54:32;;;;;;;6.65;3.95;;;;;;;3.80;97.88;98344.59;4949033;28;20105;-70
2023/01/15 03:57:35;;;;;;;8.32;3.97;;;;;;;3.73;98.66;98325.06;4987739;28;20050;-70
2023/01/15 04:00:35;;;;;;;5.85;3.65;;;;;;;3.82;98.20;98335.84;4976204;28;20050;-70
2023/01/15 04:03:22;;;;;;;5.55;3.85;;;;;;;3.70;99.03;98328.66;4998018;28;20115;-71
2023/01/15 04:06:09;;;;;;;6.72;4.13;;;;;;;3.81;98.30;98333.31;4998552;28;20038;-71
2023/01/15 04:08:56;;;;;;;6.60;4.30;;;;;;;3.64;98.62;98329.78;4979554;28;20046;-71
2023/01/15 04:11:43;;;;;;;6.70;3.70;;;;;;;3.75;98.38;98320.66;4981362;28;20045;-70
2023/01/15 04:14:29;;;;;;;8.15;4.20;;;;;;;3.73;98.05;98309.53;4984321;28;20034;-71
2023/01/15 04:17:15;;;;;;;5.53;3.40;;;;;;;3.64;98.15;98313.41;5012216;28;20038;-71
2023/01/15 04:20:02;;;;;;;5.75;3.80;;;;;;;3.55;99.03;98315.50;5000160;28;20532;-70
2023/01/15 04:22:47;;;;;;;6.93;3.53;;;;;;;3.59;98.98;98307.59;4958142;28;20113;-71
2023/01/15 04:25:32;;;;;;;5.82;3.50;;;;;;;3.45;100.00;98296.13;5010390;28;20033;-70
2023/01/15 04:28:17;;;;;;;6.82;4.15;;;;;;;3.37;99.40;98288.72;5013056;28;20041;-70
2023/01/15 04:31:02;;;;;;;6.22;4.53;;;;;;;3.34;99.92;98294.03;5012656;28;20045;-70
2023/01/15 04:33:47;;;;;;;6.70;4.00;;;;;;;3.32;100.00;98288.94;4997445;28;20381;-70
2023/01/15 04:36:34;;;;;;;6.28;3.80;;;;;;;3.26;100.00;98291.81;4997082;28;20037;-70
2023/01/15 04:39:19;;;;;;;6.85;4.32;;;;;;;3.40;99.45;98282.53;5012507;28;20076;-71
2023/01/15 04:45:07;;;;;;;6.50;3.88;;;;;;;3.38;98.62;98266.25;5012800;28;20034;-71
2023/01/15 04:47:52;;;;;;;5.57;3.20;;;;;;;3.36;98.07;98266.31;5007048;28;20041;-70
2023/01/15 04:50:38;;;;;;;4.65;3.30;;;;;;;3.32;98.35;98259.59;5012377;28;20425;-71
2023/01/15 04:53:22;;;;;;;5.97;3.70;;;;;;;3.28;98.24;98269.25;4994602;28;20038;-71
2023/01/15 04:56:07;;;;;;;5.18;3.38;;;;;;;3.36;97.27;98265.47;4994306;28;20050;-71
2023/01/15 04:58:51;;;;;;;8.25;3.13;;;;;;;3.33;97.35;98271.63;4994855;28;20058;-69
2023/01/15 05:01:37;;;;;;;7.63;3.85;;;;;;;3.19;98.61;98269.69;4980357;28;20113;-72
2023/01/15 05:04:21;;;;;;;5.68;3.15;;;;;;;3.22;98.74;98258.34;4994446;28;20184;-70
2023/01/15 05:07:06;;;;;;;7.28;3.75;;;;;;;3.06;99.87;98254.72;4994377;28;20042;-70
2023/01/15 05:09:53;;;;;;;5.75;3.72;;;;;;;2.92;100.00;98257.09;5007819;28;20041;-71
2023/01/15 05:12:39;;;;;;;7.18;4.32;;;;;;;2.82;100.00;98247.16;5014076;28;20125;-71
2023/01/15 05:15:24;;;;;;;6.32;3.95;;;;;;;2.76;100.00;98244.03;5011877;28;20121;-70
2023/01/15 05:18:13;;;;;;;6.22;3.97;;;;;;;2.83;100.00;98248.84;4994574;28;20049;-69
2023/01/15 05:20:58;;;;;;;8.18;4.35;;;;;;;2.81;100.00;98252.41;4996689;28;20481;-70
2023/01/15 05:23:44;;;;;;;6.20;3.45;;;;;;;2.87;100.00;98252.16;4983125;28;20481;-71
2023/01/15 05:26:30;;;;;;;5.97;3.67;;;;;;;2.89;100.00;98249.47;5012657;28;20037;-70
2023/01/15 05:29:16;;;;;;;6.90;4.00;;;;;;;2.98;99.50;98248.22;5014157;28;20034;-71
2023/01/15 05:32:00;;;;;;;6.75;3.90;;;;;;;3.05;98.03;98236.69;4996789;28;20068;-69
2023/01/15 05:34:53;;;;;;;5.97;3.85;;;;;;;2.96;98.74;98240.50;4994536;28;20104;-69
2023/01/15 05:37:38;;;;;;;5.60;3.45;;;;;;;2.99;97.73;98242.16;4967420;28;20427;-71
2023/01/15 05:40:23;;;;;;;5.03;2.95;;;;;;;3.05;97.52;98245.25;5012203;28;20038;-69
2023/01/15 05:43:09;;;;;;;5.22;3.30;;;;;;;3.12;96.77;98250.19;4997637;28;20050;-70
2023/01/15 05:46:00;;;;;;;4.70;3.10;;;;;;;3.02;97.03;98249.75;5013642;28;20116;-71
2023/01/15 05:48:45;;;;;;;5.65;3.00;;;;;;;3.11;96.57;98241.56;5012118;28;20503;-71
2023/01/15 05:51:30;;;;;;;6.53;3.17;;;;;;;3.12;95.81;98247.59;4996936;28;20121;-69
2023/01/15 05:54:18;;;;;;;4.93;2.90;;;;;;;3.08;94.89;98254.66;4982437;28;20049;-70
2023/01/15 05:57:03;;;;;;;4.45;2.75;;;;;;;3.10;95.07;98252.81;4996684;28;20108;-70
2023/01/15 05:59:49;;;;;;;7.85;3.05;;;;;;;3.13;94.66;98249.25;5009924;28;20489;-69
2023/01/15 06:02:34;;;;;;;4.50;2.85;;;;;;;3.25;94.13;98248.69;5002657;28;20128;-72
2023/01/15 06:05:19;;;;;;;3.70;2.72;;;;;;;3.23;94.15;98258.28;4991556;28;20046;-70
2023/01/15 06:08:04;;;;;;;4.22;2.70;;;;;;;3.05;94.71;98254.81;4983029;28;20048;-71
2023/01/15 06:10:49;;;;;;;6.13;2.95;;;;;;;3.08;95.08;98252.06;4994799;28;20034;-69
2023/01/15 06:13:34;;;;;;;5.28;3.00;;;;;;;2.87;96.67;98251.28;5010910;28;20038;-70
2023/01/15 06:16:18;;;;;;;3.83;2.50;;;;;;;3.01;96.48;98238.56;4996325;28;20382;-73
2023/01/15 06:19:05;;;;;;;4.78;2.72;;;;;;;3.08;95.25;98242.53;4996867;28;20037;-72
2023/01/15 06:21:49;;;;;;;5.68;3.25;;;;;;;3.15;94.59;98243.09;5013113;28;20432;-73
2023/01/15 06:24:34;;;;;;;3.50;2.50;;;;;;;3.16;94.04;98237.03;4998812;28;20091;-74
2023/01/15 06:27:19;;;;;;;5.18;2.53;;;;;;;3.09;94.40;98243.38;5013601;28;20068;-74
2023/01/15 06:30:05;;;;;;;4.68;2.40;;;;;;;3.06;94.56;98241.78;5013136;28;20046;-72
2023/01/15 06:32:50;;;;;;;4.82;2.63;;;;;;;2.95;94.83;98250.03;4996536;28;20049;-73
2023/01/15 06:35:35;;;;;;;5.05;3.00;;;;;;;3.05;94.63;98250.44;5013741;28;20085;-74
2023/01/15 06:38:20;;;;;;;3.53;2.35;;;;;;;3.12;93.45;98247.59;5013608;28;20113;-73
2023/01/15 06:47:19;;;;;;;5.30;2.70;;;;;;;3.20;94.47;98261.00;5013246;28;20050;-74
2023/01/15 06:47:20;;;;;;;5.43;2.60;;;;;;;3.20;93.19;98237.69;5014724;28;20527;-73
2023/01/15 06:50:05;;;;;;;4.32;2.85;;;;;;;3.08;94.82;98239.13;5013594;28;20084;-74
2023/01/15 06:52:50;;;;;;;3.88;2.40;;;;;;;3.18;92.98;98242.94;4998757;28;20038;-73
2023/01/15 06:55:34;;;;;;;4.80;2.50;;;;;;;3.32;92.85;98231.97;5011285;28;20034;-71
2023/01/15 06:58:21;;;;;;;3.97;2.00;;;;;;;3.40;91.97;98233.34;4996180;28;20094;-71
2023/01/15 07:01:14;;;;;;;4.75;2.28;;;;;;;3.30;92.27;98238.97;4998894;28;20057;-70
2023/01/15 07:03:59;;;;;;;2.88;1.92;;;;;;;3.63;94.53;98254.72;5011057;28;20054;-69
2023/01/15 07:06:45;;;;;;;4.07;2.38;;;;;;;3.46;92.21;98248.56;4997100;28;20045;-69
2023/01/15 07:09:30;;;;;;;3.08;2.05;;;;;;;3.52;92.26;98255.22;5011216;28;20035;-69
2023/01/15 07:12:16;;;;;;;5.07;2.58;;;;;;;3.33;92.17;98258.69;5000681;28;20046;-73
2023/01/15 07:15:01;;;;;;;3.92;2.40;;;;;;;3.36;93.07;98250.78;5012732;28;20044;-72
2023/01/15 07:17:46;;;;;;;4.50;2.58;;;;;;;3.38;92.86;98253.31;5001764;28;20037;-71
2023/01/15 07:20:31;;;;;;;4.85;2.50;;;;;;;3.41;92.25;98258.34;4986015;28;20077;-70
2023/01/15 07:23:16;;;;;;;4.05;2.50;;;;;;;3.33;91.92;98241.41;5012721;28;20107;-70
2023/01/15 07:26:01;;;;;;;3.13;2.05;;;;;;;3.42;92.23;98245.31;4992217;28;20111;-71
2023/01/15 07:28:47;;;;;;;5.38;2.90;;;;;;;3.35;92.95;98240.47;4991182;28;20037;-74
2023/01/15 07:31:32;;;;;;;6.43;3.17;;;;;;;3.56;93.37;98246.38;5007231;28;20038;-60
2023/01/15 07:34:18;;;;;;;4.88;2.40;;;;;;;3.99;95.05;98247.78;4985650;28;20042;-71
2023/01/15 07:37:02;;;;;;;6.82;2.60;;;;;;;3.83;94.90;98251.16;4990685;28;20093;-68
2023/01/15 07:39:47;;;;;;;7.93;3.20;;;;;;;3.50;93.75;98250.13;5000529;28;20532;-67
2023/01/15 07:51:48;;;;;;;6.78;3.63;;;;;;;3.41;94.68;98243.63;5003816;28;20128;-70
2023/01/15 07:54:33;;;;;;;5.65;3.40;;;;;;;3.37;94.28;98246.44;4982358;28;20035;-70
2023/01/15 07:57:20;;;;;;;5.22;3.60;;;;;;;3.28;94.30;98227.81;5005897;28;20056;-70
2023/01/15 08:00:10;;;;;;;6.25;3.65;;;;;;;3.29;94.73;98224.34;4988753;28;20050;-71
2023/01/15 08:02:57;;;;;;;7.53;4.15;;;;;;;3.35;94.72;98224.94;5013779;28;20066;-70
2023/01/15 08:05:42;;;;;;;6.57;3.70;;;;;;;3.13;94.81;98213.88;5000755;28;20063;-71
2023/01/15 08:08:27;;;;;;;8.88;4.43;;;;;;;3.22;95.24;98216.91;5015052;28;20450;-69
2023/01/15 08:17:45;;;;;;;7.82;4.07;;;;;;;3.43;92.96;98230.59;4985662;28;20045;-70
2023/01/15 08:20:33;;;;;;;6.77;4.07;;;;;;;3.41;93.08;98232.44;5000952;28;20532;-70
2023/01/15 08:23:18;;;;;;;9.35;4.28;;;;;;;3.44;94.64;98230.53;4996815;28;20117;-70
2023/01/15 08:26:04;;;;;;;6.88;4.13;;;;;;;3.50;94.48;98224.22;4964774;28;20038;-71
2023/01/15 08:29:15;;;;;;;8.95;5.10;;;;;;;3.23;94.42;98226.38;4998073;28;20029;-69
2023/01/15 08:31:59;;;;;;;10.57;5.03;;;;;;;3.09;95.68;98230.44;5013160;28;20057;-69
2023/01/15 08:34:44;;;;;;;9.75;4.75;;;;;;;3.28;95.32;98232.19;5011673;28;20076;-69
2023/01/15 08:37:29;;;;;;;5.88;4.32;;;;;;;3.16;95.10;98223.22;5011976;28;20044;-69
2023/01/15 08:40:14;;;;;;;5.70;4.47;;;;;;;3.16;95.53;98223.22;4995428;28;20034;-71
2023/01/15 08:42:59;;;;;;;7.57;4.57;;;;;;;3.10;95.40;98228.69;4997580;28;20041;-70
2023/01/15 08:45:44;;;;;;;9.07;5.20;;;;;;;3.21;96.39;98218.69;4997171;28;20045;-72
2023/01/15 08:48:30;;;;;;;7.85;4.80;;;;;;;3.35;95.54;98222.34;5012595;28;20046;-69
2023/01/15 08:51:16;;;;;;;11.35;5.93;;;;;;;3.33;96.29;98217.25;5012505;28;20380;-69
2023/01/15 08:54:01;;;;;;;7.78;5.03;;;;;;;3.12;97.19;98216.53;4969951;28;20065;-69
2023/01/15 08:56:48;;;;;;;10.93;6.30;;;;;;;3.15;97.41;98216.38;5010014;28;20041;-69
2023/01/15 08:59:32;;;;;;;9.63;5.80;;;;;;;2.99;98.89;98208.50;5012465;28;20065;-69
2023/01/15 09:02:17;;;;;;;8.65;5.30;;;;;;;2.89;100.00;98195.16;4996476;28;20069;-69
2023/01/15 09:05:02;;;;;;;9.80;6.00;;;;;;;2.78;100.00;98178.34;5012327;28;20042;-71
2023/01/15 09:07:47;;;;;;;14.02;7.15;;;;;;;2.78;100.00;98162.81;4997847;28;20091;-70
2023/01/15 09:10:33;;;;;;;10.05;6.72;;;;;;;2.90;100.00;98158.00;4993242;28;20042;-69
2023/01/15 09:13:18;;;;;;;9.00;5.70;;;;;;;2.98;100.00;98142.94;4997666;28;20126;-69
2023/01/15 09:16:05;;;;;;;10.35;6.07;;;;;;;2.68;100.00;98149.47;5006714;28;20038;-71
2023/01/15 09:18:50;;;;;;;9.63;6.20;;;;;;;2.58;100.00;98154.22;4996648;28;20046;-71
2023/01/15 09:21:35;;;;;;;11.90;5.95;;;;;;;2.54;100.00;98137.19;4996845;28;20042;-70
2023/01/15 09:24:20;;;;;;;10.00;6.20;;;;;;;2.31;100.00;98136.47;4984302;28;20033;-69
2023/01/15 09:27:05;;;;;;;8.65;6.28;;;;;;;2.29;100.00;98133.13;5012048;28;20469;-72
2023/01/15 09:29:49;;;;;;;10.30;6.00;;;;;;;2.45;100.00;98130.66;5011810;28;20072;-70
2023/01/15 09:32:34;;;;;;;11.38;7.22;;;;;;;2.45;100.00;98137.59;5011079;28;20473;-70
2023/01/15 09:35:18;;;;;;;9.23;6.05;;;;;;;2.50;100.00;98152.91;4987112;28;20038;-72
2023/01/15 09:38:03;;;;;;;10.38;6.18;;;;;;;2.50;100.00;98153.72;4996665;28;20823;-71
2023/01/15 09:40:51;;;;;;;10.25;6.57;;;;;;;2.31;100.00;98156.31;4983597;28;20085;-70
2023/01/15 09:43:50;;;;;;;9.52;6.60;;;;;;;2.22;100.00;98150.63;5011537;28;20049;-69
2023/01/15 09:46:52;;;;;;;11.95;7.25;;;;;;;2.21;100.00;98130.03;5006003;28;20053;-70
2023/01/15 09:49:46;;;;;;;10.45;6.53;;;;;;;2.24;100.00;98140.22;5005057;28;20042;-69
2023/01/15 09:52:43;;;;;;;10.23;6.78;;;;;;;2.22;100.00;98122.19;5013777;28;20142;-69
2023/01/15 09:55:34;;;;;;;9.93;6.28;;;;;;;2.50;100.00;98127.06;5013734;28;20127;-65
2023/01/15 09:58:26;;;;;;;11.02;6.80;;;;;;;2.69;100.00;98150.31;5011761;28;20048;-64
2023/01/15 10:06:22;;;;;;;11.18;6.93;;;;;;;2.68;100.00;98151.22;4972627;28;20390;-62
2023/01/15 10:09:14;;;;;;;9.15;6.00;;;;;;;2.91;100.00;98165.69;4972478;28;20046;-66
2023/01/15 10:15:12;;;;;;;10.48;6.97;;;;;;;3.77;100.00;98143.44;4964435;28;20047;-67
2023/01/15 10:17:57;;;;;;;11.13;6.70;;;;;;;3.66;100.00;98148.34;4960044;28;20042;-66
2023/01/15 10:21:06;;;;;;;9.70;6.32;;;;;;;3.59;100.00;98149.56;4974362;28;20057;-64
2023/01/15 10:24:15;;;;;;;12.13;6.47;;;;;;;3.67;100.00;98142.25;4973911;28;20141;-65
2023/01/15 10:27:04;;;;;;;11.23;6.57;;;;;;;3.58;100.00;98125.41;4953965;29;20079;-61
2023/01/15 10:29:58;;;;;;;10.68;7.05;;;;;;;3.26;100.00;98130.44;4957342;28;20028;-69
2023/01/15 10:32:48;;;;;;;9.45;6.22;;;;;;;3.31;100.00;98118.09;4955124;29;20048;-67
2023/01/15 10:35:54;;;;;;;9.98;6.82;;;;;;;4.95;100.00;98120.03;4947583;28;20125;-64
2023/01/15 10:38:52;;;;;;;14.90;7.20;;;;;;;8.11;100.00;98121.63;4969011;28;20052;-65
2023/01/15 10:41:56;;;;;;;9.45;5.63;;;;;;;7.69;97.72;98117.44;4969466;28;20392;-67
2023/01/15 10:45:10;;;;;;;9.40;6.10;;;;;;;5.32;93.09;98124.06;4955030;28;20074;-66
2023/01/15 10:48:09;;;;;;;9.15;6.00;;;;;;;4.44;96.72;98114.09;4958514;28;20051;-64
2023/01/15 10:50:56;;;;;;;10.77;6.53;;;;;;;4.35;100.00;98101.63;4962370;28;20039;-63
2023/01/15 10:54:15;;;;;;;11.20;6.45;;;;;;;4.34;98.14;98102.53;4974442;28;20430;-64
2023/01/15 10:57:16;;;;;;;11.10;6.75;;;;;;;4.05;100.00;98097.97;4958119;29;20483;-64
2023/01/15 11:00:02;;;;;;;12.05;7.57;;;;;;;4.11;100.00;98090.78;4957593;28;20055;-64
2023/01/15 11:03:13;;;;;;;11.88;7.00;;;;;;;4.40;98.83;98091.84;4970763;28;20051;-64
2023/01/15 11:05:58;;;;;;;12.98;7.25;;;;;;;4.38;96.76;98090.22;5011200;28;20053;-63
2023/01/15 11:08:49;;;;;;;12.73;6.82;;;;;;;4.23;98.24;98082.34;5000097;28;20041;-63
2023/01/15 11:20:53;;;;;;;12.93;7.38;;;;;;;4.45;97.60;98076.03;5000641;28;20120;-64
2023/01/15 11:23:39;;;;;;;10.02;7.05;;;;;;;4.32;98.34;98061.09;5014329;28;20563;-63
2023/01/15 11:26:52;;;;;;;10.07;7.20;;;;;;;4.04;99.75;98048.81;4999406;28;20064;-63
2023/01/15 11:29:37;;;;;;;12.80;7.43;;;;;;;3.84;100.00;98045.50;5001397;28;20112;-64
2023/01/15 11:32:36;;;;;;;12.85;8.02;;;;;;;3.96;100.00;98050.97;5004867;28;20038;-66
2023/01/15 11:35:21;;;;;;;12.45;7.80;;;;;;;3.92;100.00;98039.91;5000071;28;20061;-64
2023/01/15 11:38:22;;;;;;;12.45;7.20;;;;;;;3.95;100.00;98042.34;5014727;28;20088;-66
2023/01/15 11:41:19;;;;;;;11.23;7.88;;;;;;;4.18;100.00;98043.72;4993369;28;20402;-71
2023/01/15 11:50:59;;;;;;;14.32;8.13;;;;;;;4.04;100.00;98034.09;4986593;28;20039;-66
2023/01/15 11:53:54;;;;;;;13.27;7.97;;;;;;;4.25;100.00;98031.25;4980284;28;20409;-68
2023/01/15 11:56:45;;;;;;;12.02;7.45;;;;;;;4.28;100.00;98033.69;4993846;28;20136;-64
2023/01/15 11:59:29;;;;;;;14.70;8.15;;;;;;;4.28;100.00;98030.25;4991653;28;20140;-66
2023/01/15 12:02:48;;;;;;;11.65;7.75;;;;;;;4.06;100.00;98019.28;4977912;28;20068;-64
2023/01/15 12:05:35;;;;;;;13.20;8.52;;;;;;;3.93;100.00;98033.81;4991505;28;20169;-64
2023/01/15 12:08:52;;;;;;;13.10;7.38;;;;;;;3.89;100.00;98025.38;4976785;28;20513;-65
2023/01/15 12:12:02;;;;;;;12.90;7.78;;;;;;;3.92;100.00;98022.63;4981600;28;20038;-64
2023/01/15 12:15:11;;;;;;;13.20;7.97;;;;;;;3.86;100.00;98009.97;4976079;28;20042;-65
2023/01/15 12:18:01;;;;;;;13.63;8.10;;;;;;;3.81;100.00;98023.19;4966885;28;20073;-63
2023/01/15 12:21:22;;;;;;;15.00;8.88;;;;;;;3.76;100.00;98009.63;4977226;28;20042;-63
2023/01/15 12:24:39;;;;;;;14.82;9.25;;;;;;;3.73;100.00;98020.16;4976166;28;20043;-62
2023/01/15 12:27:51;;;;;;;12.88;8.13;;;;;;;3.75;100.00;98013.16;4996045;28;20124;-44
2023/01/15 12:31:19;;;;;;;13.02;7.90;;;;;;;3.62;100.00;98012.09;5002512;28;20066;-69
2023/01/15 12:34:15;;;;;;;12.32;7.72;;;;;;;3.57;100.00;98008.00;4954489;29;20531;-70
2023/01/15 12:37:09;;;;;;;15.77;9.10;;;;;;;3.56;100.00;98002.88;4950975;29;20055;-71
2023/01/15 12:40:06;;;;;;;15.38;8.70;;;;;;;3.47;100.00;97996.44;4951777;28;20553;-67
2023/01/15 12:46:01;;;;;;;13.18;8.38;;;;;;;3.60;100.00;97985.44;4946506;28;20516;-68
2023/01/15 12:48:56;;;;;;;13.05;9.27;;;;;;;3.41;100.00;97978.66;4953362;29;20055;-68
2023/01/15 12:51:53;;;;;;;13.18;8.60;;;;;;;3.42;100.00;97983.75;4953866;29;20043;-68
2023/01/15 12:54:50;;;;;;;16.58;8.90;;;;;;;3.43;100.00;97990.59;4953091;28;20047;-67
2023/01/15 12:57:39;;;;;;;14.27;8.38;;;;;;;3.50;100.00;97990.25;4953198;29;20133;-61
2023/01/15 13:00:34;;;;;;;18.35;9.05;;;;;;;3.40;100.00;97980.38;4941637;29;20043;-61
2023/01/15 13:03:52;;;;;;;15.25;9.07;;;;;;;3.39;100.00;97985.66;4952984;29;20597;-62
2023/01/15 13:06:43;;;;;;;14.02;9.13;;;;;;;3.37;100.00;97977.09;4953481;28;20115;-67
2023/01/15 13:09:42;;;;;;;15.25;9.55;;;;;;;3.31;100.00;97971.31;4974371;28;20074;-69
2023/01/15 13:12:28;;;;;;;14.88;9.18;;;;;;;3.37;100.00;97970.19;4986400;28;20065;-66
2023/01/15 13:15:16;;;;;;;15.07;8.60;;;;;;;3.35;100.00;97966.00;4995106;28;20057;-67
2023/01/15 13:18:20;;;;;;;18.83;9.73;;;;;;;3.31;100.00;97973.09;4978573;28;20034;-68
2023/01/15 13:21:13;;;;;;;14.20;8.75;;;;;;;3.53;100.00;97979.75;4990375;28;20069;-67
2023/01/15 13:24:32;;;;;;;13.15;9.20;;;;;;;3.40;100.00;97984.72;4991641;28;20474;-66
2023/01/15 13:27:27;;;;;;;14.98;9.50;;;;;;;3.27;100.00;97984.50;4983092;28;20052;-67
2023/01/15 13:30:30;;;;;;;15.50;9.90;;;;;;;3.28;100.00;97970.66;4993261;28;20064;-68
2023/01/15 13:33:40;;;;;;;15.52;9.57;;;;;;;3.27;100.00;97976.75;4982283;28;20319;-69
2023/01/15 13:36:28;;;;;;;14.27;9.90;;;;;;;3.17;100.00;97961.69;4993217;28;20038;-66
2023/01/15 13:39:18;;;;;;;15.98;9.85;;;;;;;3.42;100.00;97946.63;4992317;28;20062;-55
2023/01/15 13:45:15;;;;;;;15.52;9.18;;;;;;;3.55;100.00;97945.09;4974801;28;20482;-66
2023/01/15 13:48:33;;;;;;;16.02;9.27;;;;;;;3.72;100.00;97940.75;4980583;28;20034;-67
2023/01/15 13:51:31;;;;;;;15.98;10.77;;;;;;;3.51;100.00;97946.16;4994248;28;20043;-68
2023/01/15 13:54:21;;;;;;;21.42;11.93;;;;;;;3.48;100.00;97937.72;4991722;28;20073;-67
2023/01/15 13:57:20;;;;;;;18.55;11.30;;;;;;;3.45;100.00;97936.97;4974677;28;20126;-66
2023/01/15 14:00:31;;;;;;;20.17;11.02;;;;;;;3.39;100.00;97941.63;4974206;28;20125;-67
2023/01/15 14:03:53;;;;;;;17.70;10.93;;;;;;;3.38;100.00;97945.13;4993419;28;20137;-64
2023/01/15 14:06:48;;;;;;;18.55;11.07;;;;;;;3.30;100.00;97942.91;4993698;28;20068;-64
2023/01/15 14:09:33;;;;;;;19.33;11.35;;;;;;;3.47;100.00;97943.81;4992653;28;20492;-64
2023/01/15 14:12:37;;;;;;;18.70;10.10;;;;;;;3.57;100.00;97937.22;4989907;28;20041;-65
2023/01/15 14:15:27;;;;;;;17.60;10.90;;;;;;;3.54;100.00;97940.81;4994459;28;20137;-64
2023/01/15 14:18:24;;;;;;;17.48;11.20;;;;;;;3.55;100.00;97949.41;4978543;28;20043;-64
2023/01/15 14:21:36;;;;;;;15.30;10.30;;;;;;;3.78;100.00;97952.53;4999203;28;20038;-65